Time;durP1;ratioP1;P1;durP2;ratioP2;P2;SDS_P1;SDS_P2;PMS_P1;PMS_P2;Temp;Humidity;BMP_temperature;BMP_pressure;BME280_temperature;BME280_humidity;BME280_pressure;Samples;Min_cycle;Max_cycle;Signal;HPM_P1;HPM_P2
2021/07/27 00:00:31;;;;;;;9.37;6.10;;;17.60;8.00;;;;;;5093947;28;20208;-63
2021/07/27 00:03:00;;;;;;;8.07;6.27;;;17.60;99.90;;;;;;5094921;28;20204;-62
2021/07/27 00:05:26;;;;;;;10.83;6.73;;;17.60;99.90;;;;;;5093332;28;20636;-62
2021/07/27 00:07:53;;;;;;;8.27;6.30;;;17.60;99.90;;;;;;5094199;28;20731;-63
2021/07/27 00:10:20;;;;;;;9.33;6.40;;;17.50;99.90;;;;;;5093004;28;20215;-63
2021/07/27 00:12:47;;;;;;;9.20;7.10;;;17.50;1.00;;;;;;5092376;28;20249;-62
2021/07/27 00:15:15;;;;;;;9.73;5.87;;;17.50;1.00;;;;;;5092088;28;20250;-63
2021/07/27 00:17:42;;;;;;;10.27;6.57;;;17.50;1.00;;;;;;5092398;28;20584;-63
2021/07/27 00:20:09;;;;;;;9.43;6.10;;;17.50;99.90;;;;;;5092003;28;20228;-63
2021/07/27 00:22:40;;;;;;;8.10;6.23;;;17.40;99.90;;;;;;5092141;28;20234;-63
2021/07/27 00:25:08;;;;;;;9.00;6.43;;;17.40;1.00;;;;;;5092098;28;20287;-62
2021/07/27 00:27:34;;;;;;;9.47;6.60;;;17.30;99.90;;;;;;5092092;28;20202;-63
2021/07/27 00:30:03;;;;;;;10.63;7.13;;;17.30;1.00;;;;;;5092177;28;20220;-63
2021/07/27 00:32:31;;;;;;;9.50;6.97;;;17.30;51.60;;;;;;5091941;28;20240;-63
2021/07/27 00:34:57;;;;;;;10.10;7.10;;;17.30;99.90;;;;;;5091824;28;20628;-63
2021/07/27 00:37:28;;;;;;;9.33;6.73;;;17.20;1.00;;;;;;5091803;28;20207;-63
2021/07/27 00:39:55;;;;;;;9.40;7.07;;;17.20;41.80;;;;;;5092287;28;20281;-63
2021/07/27 00:42:21;;;;;;;8.53;6.80;;;17.20;99.90;;;;;;5091809;28;20212;-63
2021/07/27 00:44:48;;;;;;;8.70;7.00;;;17.20;99.90;;;;;;5091640;28;20668;-63
2021/07/27 00:47:15;;;;;;;9.10;6.53;;;17.20;1.00;;;;;;5091880;28;20204;-63
2021/07/27 00:49:43;;;;;;;11.93;7.50;;;17.20;1.00;;;;;;5091733;28;20639;-62
2021/07/27 00:52:10;;;;;;;10.23;7.37;;;17.20;1.00;;;;;;5091959;28;20257;-63
2021/07/27 00:54:38;;;;;;;11.13;6.60;;;17.10;65.30;;;;;;5091879;28;20220;-63
2021/07/27 00:57:05;;;;;;;10.27;7.27;;;17.10;96.70;;;;;;5091743;28;20680;-63
2021/07/27 00:59:32;;;;;;;8.40;6.70;;;17.10;99.90;;;;;;5091931;28;20224;-63
2021/07/27 01:01:58;;;;;;;9.07;6.53;;;17.10;99.90;;;;;;5092250;28;20679;-62
2021/07/27 01:04:25;;;;;;;10.13;7.47;;;17.10;99.90;;;;;;5091544;28;20196;-62
2021/07/27 01:06:54;;;;;;;15.33;8.30;;;17.00;1.00;;;;;;5091896;28;20208;-62
2021/07/27 01:09:21;;;;;;;10.97;8.57;;;17.00;1.00;;;;;;5091763;28;20273;-63
2021/07/27 01:11:47;;;;;;;11.63;8.23;;;17.00;1.00;;;;;;5091828;28;20212;-63
2021/07/27 01:14:14;;;;;;;10.30;8.03;;;17.00;10.70;;;;;;5091542;28;20269;-62
2021/07/27 01:16:40;;;;;;;12.87;8.77;;;17.10;99.90;;;;;;5091927;28;20205;-61
2021/07/27 01:19:19;;;;;;;16.03;9.93;;;17.10;99.90;;;;;;5091670;28;20228;-62
2021/07/27 01:38:21;;;;;;;12.10;9.40;;;17.40;99.90;;;;;;5091884;28;20243;-63
2021/07/27 01:40:56;;;;;;;13.67;10.00;;;17.50;99.90;;;;;;5095290;28;20203;-63
2021/07/27 01:43:28;;;;;;;14.60;11.33;;;17.40;99.90;;;;;;5095128;28;20208;-62
2021/07/27 01:45:54;;;;;;;20.67;11.17;;;17.50;99.90;;;;;;5094866;28;20212;-63
2021/07/27 01:48:21;;;;;;;16.73;12.00;;;17.50;99.90;;;;;;5095168;28;20224;-62
2021/07/27 01:50:48;;;;;;;17.20;12.27;;;17.40;99.90;;;;;;5095049;28;20212;-62
2021/07/27 01:53:26;;;;;;;18.60;13.27;;;17.40;99.90;;;;;;5095006;28;20627;-61
2021/07/27 01:55:55;;;;;;;20.33;13.80;;;17.40;99.90;;;;;;5094740;28;20224;-63
2021/07/27 01:58:21;;;;;;;21.90;13.77;;;17.40;72.10;;;;;;5094754;28;20258;-62
2021/07/27 02:00:48;;;;;;;19.47;13.93;;;17.30;21.10;;;;;;5094701;28;20612;-63
2021/07/27 02:03:15;;;;;;;21.87;14.73;;;17.30;30.70;;;;;;5094603;28;20228;-63
2021/07/27 02:05:42;;;;;;;18.97;13.53;;;17.30;94.60;;;;;;5094695;28;20621;-62
2021/07/27 02:08:08;;;;;;;20.83;14.67;;;17.30;99.90;;;;;;5094595;28;20268;-63
2021/07/27 02:10:35;;;;;;;21.27;15.10;;;17.30;99.90;;;;;;5094700;28;20204;-63
2021/07/27 02:13:12;;;;;;;22.70;15.97;;;17.40;99.90;;;;;;5094549;28;20575;-63
2021/07/27 02:15:39;;;;;;;24.80;15.80;;;17.40;99.90;;;;;;5094407;28;20691;-63
2021/07/27 02:18:06;;;;;;;27.07;17.27;;;17.40;99.90;;;;;;5094365;28;20254;-63
2021/07/27 02:20:33;;;;;;;26.97;17.40;;;17.40;97.40;;;;;;5094441;28;20208;-63
2021/07/27 02:23:00;;;;;;;26.17;17.37;;;17.40;63.40;;;;;;5094306;28;20265;-63
2021/07/27 02:25:26;;;;;;;28.17;18.50;;;17.40;61.80;;;;;;5094138;28;20204;-63
2021/07/27 02:27:53;;;;;;;29.63;19.20;;;17.40;25.10;;;;;;5093928;28;20606;-63
2021/07/27 02:30:21;;;;;;;27.80;17.37;;;17.40;1.00;;;;;;5094343;28;20216;-63
2021/07/27 02:32:48;;;;;;;31.40;20.60;;;17.40;1.00;;;;;;5094292;28;20205;-62
2021/07/27 02:35:14;;;;;;;31.43;20.17;;;17.40;1.00;;;;;;5093906;28;20289;-63
2021/07/27 02:37:41;;;;;;;28.43;18.67;;;17.40;1.00;;;;;;5094002;28;20258;-63
2021/07/27 02:40:10;;;;;;;28.07;18.73;;;17.40;1.00;;;;;;5093874;28;20637;-63
2021/07/27 02:42:36;;;;;;;29.33;19.07;;;17.40;99.90;;;;;;5093970;28;20724;-63
2021/07/27 02:45:08;;;;;;;31.33;21.00;;;17.30;99.90;;;;;;5093829;28;20233;-63
2021/07/27 02:47:36;;;;;;;39.07;23.67;;;17.30;99.90;;;;;;5094024;28;20254;-63
2021/07/27 02:50:03;;;;;;;36.30;22.60;;;17.20;1.00;;;;;;5093792;28;20221;-63
2021/07/27 02:52:32;;;;;;;35.43;22.93;;;17.20;1.00;;;;;;5093829;28;20635;-63
2021/07/27 02:54:58;;;;;;;35.93;22.47;;;17.20;1.00;;;;;;5094227;28;20775;-62
2021/07/27 02:57:25;;;;;;;38.73;23.43;;;17.10;1.00;;;;;;5094347;28;20340;-63
2021/07/27 02:59:52;;;;;;;44.30;24.73;;;17.10;1.00;;;;;;5093810;28;20227;-63
2021/07/27 03:02:20;;;;;;;44.93;24.83;;;17.10;1.00;;;;;;5093907;28;20765;-63
2021/07/27 03:04:48;;;;;;;42.87;25.10;;;17.00;1.00;;;;;;5093441;28;20664;-62
2021/07/27 03:07:19;;;;;;;42.17;25.67;;;16.90;1.00;;;;;;5093362;28;20204;-62
2021/07/27 03:10:17;;;;;;;46.93;26.43;;;16.80;94.00;;;;;;5093413;28;20224;-62
2021/07/27 03:12:42;;;;;;;45.43;25.47;;;16.80;99.90;;;;;;5093259;28;20211;-63
2021/07/27 03:15:10;;;;;;;45.83;26.70;;;16.70;99.90;;;;;;5093112;28;20265;-63
2021/07/27 03:17:37;;;;;;;45.77;26.40;;;16.70;99.90;;;;;;5093218;28;20208;-63
2021/07/27 03:20:06;;;;;;;47.77;26.53;;;16.70;99.90;;;;;;5093462;28;20616;-63
2021/07/27 03:22:33;;;;;;;48.20;27.10;;;16.70;99.90;;;;;;5093295;28;20253;-63
2021/07/27 03:24:59;;;;;;;44.90;26.50;;;16.60;99.90;;;;;;5093203;28;20204;-62
2021/07/27 03:27:26;;;;;;;50.13;26.20;;;16.60;99.90;;;;;;5093038;28;20733;-63
2021/07/27 03:29:53;;;;;;;43.93;25.77;;;16.60;99.90;;;;;;5093139;28;20289;-63
2021/07/27 03:32:19;;;;;;;42.77;25.37;;;16.60;1.00;;;;;;5092819;28;20212;-62
2021/07/27 03:34:48;;;;;;;46.33;26.13;;;16.60;1.00;;;;;;5092814;28;20726;-62
2021/07/27 03:37:16;;;;;;;44.63;26.60;;;16.60;1.00;;;;;;5092761;28;20224;-63
2021/07/27 03:39:43;;;;;;;45.17;25.73;;;16.70;1.00;;;;;;5093094;28;20228;-63
2021/07/27 03:42:09;;;;;;;41.07;26.70;;;16.70;1.00;;;;;;5092928;28;20208;-64
2021/07/27 03:44:36;;;;;;;41.27;25.10;;;16.70;1.00;;;;;;5092547;28;20673;-63
2021/07/27 03:47:08;;;;;;;42.20;25.90;;;16.70;1.00;;;;;;5092918;28;20209;-63
2021/07/27 03:49:34;;;;;;;44.20;25.87;;;16.70;1.00;;;;;;5092796;28;20296;-63
2021/07/27 03:52:02;;;;;;;42.17;24.90;;;16.70;1.00;;;;;;5092922;28;20257;-63
2021/07/27 03:54:31;;;;;;;40.13;25.80;;;16.80;1.00;;;;;;5092519;28;20249;-63
2021/07/27 03:56:57;;;;;;;41.33;25.53;;;16.80;1.00;;;;;;5092727;28;20220;-64
2021/07/27 03:59:24;;;;;;;42.37;27.13;;;16.80;1.00;;;;;;5092555;28;20278;-62
2021/07/27 04:01:51;;;;;;;43.00;26.50;;;16.80;1.00;;;;;;5094077;28;20204;-63
2021/07/27 04:04:18;;;;;;;36.70;26.37;;;16.90;1.00;;;;;;5093337;28;20614;-63
2021/07/27 04:06:45;;;;;;;44.73;25.90;;;16.90;1.00;;;;;;5092638;28;20200;-63
2021/07/27 04:09:11;;;;;;;41.83;26.93;;;16.80;1.00;;;;;;5083104;28;20281;-63
2021/07/27 04:11:39;;;;;;;40.83;25.97;;;16.80;1.00;;;;;;5087003;28;20238;-65
2021/07/27 04:14:07;;;;;;;38.30;24.90;;;16.80;1.00;;;;;;5096052;28;20229;-64
2021/07/27 04:16:37;;;;;;;40.20;25.47;;;16.80;1.00;;;;;;5091718;28;20230;-64
2021/07/27 04:19:04;;;;;;;37.77;24.63;;;16.80;99.90;;;;;;5087410;28;20224;-64
2021/07/27 04:21:31;;;;;;;41.47;27.43;;;16.90;99.90;;;;;;5092145;28;20204;-63
2021/07/27 04:23:57;;;;;;;41.80;27.23;;;16.90;99.90;;;;;;5092168;28;20204;-64
2021/07/27 04:26:24;;;;;;;37.93;27.10;;;16.90;99.90;;;;;;5091617;28;20669;-64
2021/07/27 04:28:52;;;;;;;37.60;26.50;;;16.90;99.90;;;;;;5091856;28;20236;-64
2021/07/27 04:31:19;;;;;;;36.73;27.77;;;17.00;99.90;;;;;;5091804;28;20811;-65
2021/07/27 04:33:45;;;;;;;38.07;26.13;;;17.00;99.90;;;;;;5092027;28;20257;-64
2021/07/27 04:36:13;;;;;;;37.73;27.93;;;17.10;99.90;;;;;;5091786;28;20220;-65
2021/07/27 04:38:40;;;;;;;45.03;29.23;;;17.10;99.90;;;;;;5091938;28;20258;-64
2021/07/27 04:41:07;;;;;;;40.37;29.67;;;17.10;99.90;;;;;;5091616;28;20722;-64
2021/07/27 04:43:34;;;;;;;44.87;30.07;;;17.10;99.90;;;;;;5091899;28;20208;-63
2021/07/27 04:46:03;;;;;;;40.50;28.50;;;17.10;99.90;;;;;;5091780;28;20261;-64
2021/07/27 04:48:31;;;;;;;42.07;29.20;;;17.20;99.90;;;;;;5091770;28;20428;-64
2021/07/27 04:50:57;;;;;;;38.13;29.77;;;17.10;99.90;;;;;;5091788;28;20259;-64
2021/07/27 04:53:25;;;;;;;42.20;29.43;;;17.20;99.90;;;;;;5091642;28;20208;-64
2021/07/27 04:55:52;;;;;;;43.23;29.77;;;17.20;94.50;;;;;;5091430;28;20235;-64
2021/07/27 04:58:18;;;;;;;40.23;29.43;;;17.20;29.70;;;;;;5091761;28;20232;-65
2021/07/27 05:00:45;;;;;;;41.93;28.27;;;17.20;1.00;;;;;;5092015;28;20208;-64
2021/07/27 05:03:13;;;;;;;41.50;28.13;;;17.30;1.00;;;;;;5091704;28;20625;-64
2021/07/27 05:05:39;;;;;;;41.87;28.33;;;17.20;99.90;;;;;;5091884;28;20253;-64
2021/07/27 05:08:06;;;;;;;42.20;28.10;;;17.30;99.90;;;;;;5091354;28;20669;-64
2021/07/27 05:10:33;;;;;;;43.50;27.13;;;17.30;99.90;;;;;;5091824;28;20204;-64
2021/07/27 05:13:00;;;;;;;37.40;26.70;;;17.40;99.90;;;;;;5091846;28;20212;-63
2021/07/27 05:15:27;;;;;;;41.17;27.43;;;17.40;99.90;;;;;;5095379;28;20672;-64
2021/07/27 05:17:54;;;;;;;38.23;26.63;;;17.50;75.50;;;;;;5088175;28;20208;-64
2021/07/27 05:20:22;;;;;;;37.17;26.53;;;17.50;1.00;;;;;;5094165;28;20200;-63
2021/07/27 05:22:48;;;;;;;39.17;25.37;;;17.60;1.00;;;;;;5095042;28;20565;-65
2021/07/27 05:25:16;;;;;;;36.57;24.30;;;17.80;99.90;;;;;;5094918;28;20253;-64
2021/07/27 05:27:42;;;;;;;35.93;25.60;;;17.90;99.90;;;;;;5095106;28;20241;-63
2021/07/27 05:30:12;;;;;;;33.77;24.47;;;17.90;1.00;;;;;;5093762;28;20616;-63
2021/07/27 05:32:39;;;;;;;36.37;24.73;;;18.00;8.40;;;;;;5095016;28;20208;-63
2021/07/27 05:35:06;;;;;;;33.67;24.07;;;18.00;1.00;;;;;;5094537;28;20261;-64
2021/07/27 05:37:34;;;;;;;34.93;24.57;;;18.00;99.90;;;;;;5094992;28;20220;-63
2021/07/27 05:40:01;;;;;;;34.30;24.60;;;18.10;99.90;;;;;;5094621;28;20284;-61
2021/07/27 05:42:28;;;;;;;37.60;23.93;;;18.00;1.00;;;;;;5094852;28;20560;-62
2021/07/27 05:44:54;;;;;;;33.57;23.30;;;18.00;27.60;;;;;;5094655;28;20208;-62
2021/07/27 05:47:21;;;;;;;33.00;23.50;;;18.00;1.00;;;;;;5094692;28;20200;-64
2021/07/27 05:49:47;;;;;;;34.20;23.53;;;18.00;99.90;;;;;;5094094;28;20224;-63
2021/07/27 05:52:14;;;;;;;32.23;23.10;;;17.90;96.80;;;;;;5094470;28;20668;-63
2021/07/27 05:54:44;;;;;;;31.43;23.63;;;18.00;1.00;;;;;;5094613;28;20216;-63
2021/07/27 05:57:12;;;;;;;34.17;23.30;;;17.90;1.00;;;;;;5094535;28;20254;-63
2021/07/27 05:59:38;;;;;;;29.83;21.43;;;17.90;99.90;;;;;;5094278;28;20228;-63
2021/07/27 06:02:05;;;;;;;30.73;22.23;;;18.00;1.00;;;;;;5094240;28;20212;-62
2021/07/27 06:04:32;;;;;;;27.73;20.30;;;18.10;1.00;;;;;;5094041;28;20254;-63
2021/07/27 06:06:58;;;;;;;28.43;20.43;;;18.30;1.00;;;;;;5094336;28;20204;-64
2021/07/27 06:09:25;;;;;;;26.43;19.00;;;18.40;97.80;;;;;;5093989;28;20220;-64
2021/07/27 06:11:53;;;;;;;23.80;18.23;;;18.40;99.90;;;;;;5094227;28;20208;-63
2021/07/27 06:14:19;;;;;;;25.33;18.37;;;18.50;99.90;;;;;;5094060;28;20234;-62
2021/07/27 06:16:46;;;;;;;26.43;18.03;;;18.50;5.80;;;;;;5093922;28;20224;-62
2021/07/27 06:19:13;;;;;;;25.07;17.17;;;18.60;99.90;;;;;;5093521;28;21114;-62
2021/07/27 06:21:42;;;;;;;20.67;16.97;;;18.70;99.90;;;;;;5094127;28;20201;-63
2021/07/27 06:24:10;;;;;;;25.47;16.70;;;18.80;99.90;;;;;;5093601;28;20205;-62
2021/07/27 06:26:38;;;;;;;24.47;17.00;;;19.00;99.90;;;;;;5093893;28;20200;-63
2021/07/27 06:29:06;;;;;;;19.30;15.27;;;19.10;99.90;;;;;;5093483;28;20774;-64
2021/07/27 06:31:33;;;;;;;25.53;17.33;;;19.10;1.00;;;;;;5093638;28;20740;-63
2021/07/27 06:34:00;;;;;;;26.00;16.87;;;19.20;31.30;;;;;;5093602;28;20746;-62
2021/07/27 06:36:27;;;;;;;21.30;15.73;;;19.30;1.00;;;;;;5093993;28;20265;-62
2021/07/27 06:38:54;;;;;;;23.00;16.57;;;19.40;99.90;;;;;;5093562;28;20228;-63
2021/07/27 06:41:21;;;;;;;20.63;16.53;;;19.40;1.00;;;;;;5093497;28;20672;-61
2021/07/27 06:43:47;;;;;;;20.63;15.60;;;19.60;1.00;;;;;;5093649;28;20230;-64
2021/07/27 06:46:15;;;;;;;22.70;14.83;;;19.70;99.90;;;;;;5093497;28;20208;-63
2021/07/27 06:48:43;;;;;;;21.07;14.80;;;19.80;99.90;;;;;;5093554;28;20361;-64
2021/07/27 06:51:13;;;;;;;17.97;13.30;;;19.80;65.00;;;;;;5093596;28;20208;-65
2021/07/27 06:53:41;;;;;;;23.23;14.77;;;19.90;99.90;;;;;;5093429;28;20268;-65
2021/07/27 06:56:09;;;;;;;19.60;14.97;;;19.90;1.00;;;;;;5093464;28;20231;-66
2021/07/27 06:58:36;;;;;;;20.73;14.47;;;19.90;1.00;;;;;;5092865;28;20220;-66
2021/07/27 07:01:03;;;;;;;19.60;15.10;;;19.90;1.00;;;;;;5093453;28;20215;-65
2021/07/27 07:03:31;;;;;;;18.90;15.90;;;20.00;1.00;;;;;;5093218;28;20729;-66
2021/07/27 07:05:58;;;;;;;20.33;13.80;;;20.00;1.00;;;;;;5093232;28;20624;-64
2021/07/27 07:08:25;;;;;;;20.07;15.13;;;20.00;1.00;;;;;;5092800;28;20581;-64
2021/07/27 07:10:56;;;;;;;17.37;14.60;;;20.10;1.00;;;;;;5092918;28;20265;-64
2021/07/27 07:13:23;;;;;;;20.03;14.90;;;20.10;99.90;;;;;;5093083;28;20432;-63
2021/07/27 07:15:50;;;;;;;20.07;15.63;;;20.20;1.00;;;;;;5092947;28;20204;-62
2021/07/27 07:18:17;;;;;;;23.93;15.63;;;20.20;99.90;;;;;;5092843;28;20228;-63
2021/07/27 07:20:45;;;;;;;22.90;16.23;;;20.10;99.90;;;;;;5092788;28;20204;-63
2021/07/27 07:23:11;;;;;;;22.27;15.23;;;20.10;99.90;;;;;;5092840;28;20716;-64
2021/07/27 07:25:42;;;;;;;20.47;16.50;;;20.20;99.90;;;;;;5092731;28;20261;-62
2021/07/27 07:28:09;;;;;;;20.53;15.13;;;20.10;99.90;;;;;;5093020;28;20307;-66
2021/07/27 07:30:36;;;;;;;20.17;14.57;;;20.10;99.90;;;;;;5092677;28;20212;-64
2021/07/27 07:33:02;;;;;;;20.23;15.07;;;20.10;99.90;;;;;;5092746;28;20730;-64
2021/07/27 07:35:29;;;;;;;17.30;13.33;;;20.20;99.90;;;;;;5092294;28;20204;-64
2021/07/27 07:37:57;;;;;;;19.37;13.20;;;20.30;99.90;;;;;;5091829;28;20224;-64
2021/07/27 07:40:24;;;;;;;20.47;12.63;;;20.40;99.90;;;;;;5092315;28;20208;-64
2021/07/27 07:42:51;;;;;;;20.27;13.00;;;20.50;99.90;;;;;;5092581;28;20208;-64
2021/07/27 07:45:17;;;;;;;15.77;12.10;;;20.50;99.90;;;;;;5092559;28;20204;-64
2021/07/27 07:47:44;;;;;;;15.07;11.13;;;20.60;99.90;;;;;;5092299;28;20204;-63
2021/07/27 07:50:11;;;;;;;14.20;11.13;;;20.60;99.90;;;;;;5092141;28;20224;-63
2021/07/27 07:52:38;;;;;;;14.00;11.60;;;20.60;10.60;;;;;;5092241;28;20204;-63
2021/07/27 07:55:08;;;;;;;14.20;11.63;;;20.60;1.00;;;;;;5092293;28;20208;-64
2021/07/27 07:57:35;;;;;;;14.23;10.67;;;20.70;10.80;;;;;;5092286;28;20326;-61
2021/07/27 08:00:02;;;;;;;14.60;12.33;;;20.70;43.20;;;;;;5092138;28;20232;-62
2021/07/27 08:02:29;;;;;;;13.90;11.60;;;20.70;1.00;;;;;;5092436;28;20208;-61
2021/07/27 08:04:56;;;;;;;13.50;10.13;;;20.80;11.60;;;;;;5092144;28;20204;-62
2021/07/27 08:07:23;;;;;;;13.87;11.13;;;21.00;1.00;;;;;;5093162;28;20804;-62
2021/07/27 08:09:49;;;;;;;14.00;11.17;;;21.00;1.00;;;;;;5094871;28;20228;-61
2021/07/27 08:12:18;;;;;;;13.30;10.30;;;21.00;1.00;;;;;;5095955;28;20257;-67
2021/07/27 08:14:44;;;;;;;11.37;9.87;;;20.90;1.00;;;;;;5093508;28;20333;-68
2021/07/27 08:17:11;;;;;;;10.90;9.47;;;21.00;1.00;;;;;;5101229;28;20238;-68
2021/07/27 08:19:38;;;;;;;11.57;9.60;;;20.90;1.00;;;;;;5095905;28;20246;-68
2021/07/27 08:22:08;;;;;;;14.63;10.50;;;20.90;1.00;;;;;;5095122;28;20265;-66
2021/07/27 08:24:36;;;;;;;12.87;9.13;;;21.00;1.00;;;;;;5091738;28;20261;-68
2021/07/27 08:27:07;;;;;;;12.97;9.70;;;21.00;1.00;;;;;;5091991;28;20204;-66
2021/07/27 08:29:36;;;;;;;14.00;10.60;;;20.80;1.00;;;;;;5091605;28;20280;-67
2021/07/27 08:32:06;;;;;;;13.90;9.87;;;20.80;1.00;;;;;;5091700;28;20277;-67
2021/07/27 08:34:35;;;;;;;13.70;9.57;;;20.70;1.00;;;;;;5091552;28;20210;-67
2021/07/27 08:37:01;;;;;;;10.80;9.20;;;20.70;1.00;;;;;;5091872;28;20228;-66
2021/07/27 08:39:28;;;;;;;13.33;10.00;;;20.90;1.00;;;;;;5091597;28;20246;-66
2021/07/27 08:41:59;;;;;;;13.23;9.63;;;21.20;1.00;;;;;;5091821;28;20208;-66
2021/07/27 08:44:30;;;;;;;12.10;9.40;;;21.40;1.00;;;;;;5091642;28;20204;-67
2021/07/27 08:46:58;;;;;;;12.13;9.40;;;21.70;1.00;;;;;;5091768;28;20283;-66
2021/07/27 08:49:25;;;;;;;11.67;9.23;;;21.90;1.00;;;;;;5095630;28;20224;-66
2021/07/27 08:51:52;;;;;;;11.57;9.30;;;22.00;1.00;;;;;;5096087;28;20253;-67
2021/07/27 08:54:19;;;;;;;11.23;9.33;;;21.90;1.00;;;;;;5095818;28;20200;-67
2021/07/27 08:56:46;;;;;;;10.53;8.93;;;21.80;1.00;;;;;;5095715;28;20742;-65
2021/07/27 08:59:13;;;;;;;10.97;8.80;;;21.60;1.00;;;;;;5095255;28;20231;-64
2021/07/27 09:01:40;;;;;;;16.57;9.83;;;21.60;1.00;;;;;;5095773;28;20269;-65
2021/07/27 09:04:08;;;;;;;13.63;8.73;;;21.70;1.00;;;;;;5095676;28;20208;-65
2021/07/27 09:06:35;;;;;;;11.10;8.73;;;21.90;1.00;;;;;;5095670;28;20200;-67
2021/07/27 09:09:06;;;;;;;13.27;9.23;;;22.10;1.00;;;;;;5095418;28;20228;-67
2021/07/27 09:11:33;;;;;;;11.63;8.53;;;22.20;99.90;;;;;;5097086;28;20265;-67
2021/07/27 09:14:00;;;;;;;12.37;8.80;;;22.10;99.90;;;;;;5095237;28;20204;-66
2021/07/27 09:16:27;;;;;;;11.37;8.27;;;21.90;99.90;;;;;;5095796;28;20208;-68
2021/07/27 09:19:00;;;;;;;11.20;8.37;;;22.00;99.90;;;;;;5095242;28;20231;-67
2021/07/27 09:21:28;;;;;;;14.93;9.03;;;22.00;1.00;;;;;;5096083;28;20204;-67
2021/07/27 09:23:55;;;;;;;11.00;8.57;;;22.10;99.90;;;;;;5095915;28;20208;-68
2021/07/27 09:26:22;;;;;;;14.67;10.27;;;22.10;99.90;;;;;;5095338;28;20265;-67
2021/07/27 09:28:49;;;;;;;13.20;8.60;;;22.20;99.90;;;;;;5095181;28;20307;-67
2021/07/27 09:31:26;;;;;;;13.70;9.17;;;22.40;99.90;;;;;;5095580;28;20645;-66
2021/07/27 09:33:53;;;;;;;11.50;9.33;;;22.50;99.90;;;;;;5095872;28;20208;-66
2021/07/27 09:36:23;;;;;;;14.47;9.23;;;22.60;99.90;;;;;;5095478;28;20208;-68
2021/07/27 09:39:01;;;;;;;11.83;8.73;;;22.70;99.90;;;;;;5094039;28;20307;-64
2021/07/27 09:41:29;;;;;;;13.93;9.97;;;22.80;99.90;;;;;;5095283;28;20576;-64
2021/07/27 09:43:56;;;;;;;12.60;8.80;;;22.80;99.90;;;;;;5094697;28;20204;-64
2021/07/27 09:46:23;;;;;;;9.50;8.00;;;22.80;99.90;;;;;;5094855;28;20261;-64
2021/07/27 09:48:50;;;;;;;11.40;8.40;;;23.00;99.90;;;;;;5094273;28;20274;-64
2021/07/27 09:51:17;;;;;;;11.63;8.93;;;23.00;99.90;;;;;;5094581;28;20208;-64
2021/07/27 09:53:46;;;;;;;12.90;9.27;;;22.90;99.90;;;;;;5094167;28;20239;-66
2021/07/27 09:56:14;;;;;;;12.17;9.50;;;22.70;99.90;;;;;;5094699;28;20204;-67
2021/07/27 09:58:41;;;;;;;14.03;8.63;;;22.70;99.90;;;;;;5093825;28;20232;-67
2021/07/27 10:01:10;;;;;;;14.27;8.73;;;22.90;99.90;;;;;;5094985;28;20208;-66
2021/07/27 10:03:48;;;;;;;10.40;8.37;;;23.20;99.90;;;;;;5094992;28;20265;-65
2021/07/27 10:06:22;;;;;;;9.97;8.63;;;23.60;99.90;;;;;;5094178;28;20208;-67
2021/07/27 10:08:55;;;;;;;11.80;9.63;;;23.50;99.90;;;;;;5093914;28;20275;-66
2021/07/27 10:11:40;;;;;;;12.67;9.80;;;23.30;99.90;;;;;;5094495;28;20697;-68
2021/07/27 10:14:08;;;;;;;14.90;9.93;;;23.20;99.90;;;;;;5094670;28;20208;-66
2021/07/27 10:16:35;;;;;;;11.57;9.40;;;22.90;99.90;;;;;;5093776;28;20291;-65
2021/07/27 10:19:15;;;;;;;13.40;9.03;;;22.70;99.90;;;;;;5093951;28;20236;-66
2021/07/27 10:21:42;;;;;;;12.73;9.27;;;22.60;99.90;;;;;;5094114;28;20283;-66
2021/07/27 10:24:14;;;;;;;11.30;9.37;;;22.70;99.90;;;;;;5093987;28;20582;-65
2021/07/27 10:26:42;;;;;;;11.77;9.43;;;22.80;99.90;;;;;;5093817;28;20265;-66
2021/07/27 10:29:09;;;;;;;14.23;10.33;;;22.80;99.90;;;;;;5093872;28;20278;-64
2021/07/27 10:31:37;;;;;;;11.57;9.77;;;22.70;99.90;;;;;;5093829;28;20212;-65
2021/07/27 10:34:06;;;;;;;11.50;9.43;;;22.60;99.90;;;;;;5093547;28;20608;-66
2021/07/27 10:36:34;;;;;;;12.43;9.93;;;22.40;99.90;;;;;;5093753;28;20672;-66
2021/07/27 10:39:09;;;;;;;16.73;11.37;;;22.30;99.90;;;;;;5093312;28;20224;-66
2021/07/27 10:41:37;;;;;;;15.83;11.17;;;22.30;99.90;;;;;;5093591;28;20208;-66
2021/07/27 10:44:07;;;;;;;13.83;10.80;;;22.30;99.90;;;;;;5093631;28;20211;-66
2021/07/27 10:46:37;;;;;;;13.07;11.13;;;22.50;99.90;;;;;;5093856;28;20201;-66
2021/07/27 10:49:04;;;;;;;16.90;13.20;;;22.80;99.90;;;;;;5093357;28;20265;-66
2021/07/27 10:51:36;;;;;;;14.37;10.83;;;23.00;99.90;;;;;;5093515;28;20223;-67
2021/07/27 10:54:05;;;;;;;15.10;11.77;;;23.20;99.90;;;;;;5093111;28;20676;-67
2021/07/27 10:56:33;;;;;;;17.07;13.47;;;23.30;99.90;;;;;;5093885;28;20681;-68
2021/07/27 10:59:00;;;;;;;14.73;11.10;;;23.20;99.90;;;;;;5093468;28;20228;-68
2021/07/27 11:01:32;;;;;;;20.13;13.00;;;23.20;99.90;;;;;;5093433;28;20254;-68
2021/07/27 11:04:10;;;;;;;15.77;13.00;;;23.10;99.90;;;;;;5093096;28;20243;-68
2021/07/27 11:06:36;;;;;;;14.27;11.53;;;23.00;99.90;;;;;;5092886;28;20215;-68
2021/07/27 11:09:03;;;;;;;14.87;10.97;;;23.10;99.90;;;;;;5093153;28;20266;-69
2021/07/27 11:11:30;;;;;;;14.00;11.13;;;23.00;99.90;;;;;;5092242;28;20254;-66
2021/07/27 11:13:57;;;;;;;13.10;10.60;;;23.00;99.90;;;;;;5093373;28;20196;-66
2021/07/27 11:16:24;;;;;;;12.83;11.13;;;22.90;99.90;;;;;;5093093;28;20216;-66
2021/07/27 11:18:52;;;;;;;14.20;11.67;;;23.00;99.90;;;;;;5092515;28;20718;-65
2021/07/27 11:21:19;;;;;;;15.23;11.63;;;23.00;99.90;;;;;;5092907;28;20700;-65
2021/07/27 11:23:46;;;;;;;12.93;11.37;;;23.20;99.90;;;;;;5092742;28;20204;-65
2021/07/27 11:26:13;;;;;;;14.40;10.63;;;23.30;99.90;;;;;;5092950;28;20291;-67
2021/07/27 11:28:40;;;;;;;12.07;10.20;;;23.30;99.90;;;;;;5092443;28;20220;-67
2021/07/27 11:31:16;;;;;;;12.17;10.87;;;23.40;99.90;;;;;;5092764;28;20208;-67
2021/07/27 11:33:49;;;;;;;12.30;10.37;;;23.20;99.90;;;;;;5092338;28;20572;-66
2021/07/27 11:36:22;;;;;;;15.90;11.80;;;23.10;99.90;;;;;;5092983;28;20214;-66
2021/07/27 11:38:49;;;;;;;13.77;11.17;;;22.90;99.90;;;;;;5092221;28;20645;-68
2021/07/27 11:41:19;;;;;;;17.97;13.10;;;22.70;99.90;;;;;;5092769;28;20756;-67
2021/07/27 11:43:48;;;;;;;26.00;15.70;;;22.60;99.90;;;;;;5092431;28;20652;-67
2021/07/27 11:46:16;;;;;;;25.27;16.93;;;22.10;1.00;;;;;;5092761;28;20241;-67
2021/07/27 11:48:43;;;;;;;26.47;19.03;;;21.70;1.00;;;;;;5092335;28;20277;-66
2021/07/27 11:51:11;;;;;;;24.33;19.00;;;21.30;62.20;;;;;;5092607;28;20273;-63
2021/07/27 11:53:39;;;;;;;21.97;15.20;;;20.80;99.90;;;;;;5092553;28;20205;-64
2021/07/27 11:56:13;;;;;;;20.10;14.27;;;20.50;99.90;;;;;;5092333;28;20680;-65
2021/07/27 11:58:40;;;;;;;15.43;11.37;;;19.80;99.90;;;;;;5091812;28;20228;-66
2021/07/27 12:01:07;;;;;;;14.93;10.30;;;19.70;99.90;;;;;;5092509;28;20262;-65
2021/07/27 12:03:34;;;;;;;16.00;11.67;;;19.50;72.50;;;;;;5092442;28;20638;-67
2021/07/27 12:06:10;;;;;;;14.43;10.13;;;19.30;99.90;;;;;;5092287;28;20204;-68
2021/07/27 12:08:38;;;;;;;12.87;10.67;;;19.10;99.90;;;;;;5091950;28;20599;-67
2021/07/27 12:11:05;;;;;;;13.93;10.40;;;19.00;99.90;;;;;;5092054;28;20200;-68
2021/07/27 12:13:32;;;;;;;13.53;10.50;;;19.10;1.00;;;;;;5092134;28;20668;-67
2021/07/27 12:15:59;;;;;;;15.13;11.63;;;19.30;37.10;;;;;;5097367;28;20503;-68
2021/07/27 12:18:26;;;;;;;12.53;11.17;;;19.40;99.90;;;;;;5098494;28;20228;-69
2021/07/27 12:20:52;;;;;;;15.77;12.07;;;19.40;99.90;;;;;;5093223;28;20212;-67
2021/07/27 12:23:20;;;;;;;14.37;11.97;;;19.60;1.00;;;;;;5102552;28;20204;-67
2021/07/27 12:25:48;;;;;;;15.60;12.70;;;19.80;99.90;;;;;;5104906;28;20212;-68
2021/07/27 12:28:15;;;;;;;14.03;12.30;;;20.00;99.90;;;;;;5103783;28;20220;-67
2021/07/27 12:30:42;;;;;;;14.60;13.10;;;20.30;99.90;;;;;;5093369;28;20668;-65
2021/07/27 12:33:11;;;;;;;18.67;13.63;;;20.60;99.90;;;;;;5091925;28;20208;-65
2021/07/27 12:35:37;;;;;;;14.60;12.30;;;20.90;99.90;;;;;;5091526;28;20678;-65
2021/07/27 12:38:06;;;;;;;13.73;11.20;;;21.10;1.00;;;;;;5091326;28;20216;-67
2021/07/27 12:40:33;;;;;;;14.37;11.33;;;21.20;99.90;;;;;;5091799;28;20204;-67
2021/07/27 12:43:01;;;;;;;15.43;11.77;;;21.20;99.90;;;;;;5091894;28;20208;-68
2021/07/27 12:45:28;;;;;;;13.63;10.23;;;21.50;99.90;;;;;;5091737;28;20211;-67
2021/07/27 12:47:55;;;;;;;16.37;12.93;;;21.70;99.90;;;;;;5091601;28;20668;-69
2021/07/27 12:50:22;;;;;;;15.40;12.97;;;21.90;1.00;;;;;;5091461;28;20665;-68
2021/07/27 12:52:48;;;;;;;17.80;14.23;;;21.90;32.80;;;;;;5091397;28;20254;-69